createdAt,value
2023-01-19T00:00:51.189Z,-1.80
2023-01-19T00:03:19.246Z,-1.60
2023-01-19T00:05:47.597Z,-1.80
2023-01-19T00:08:16.028Z,-1.70
2023-01-19T00:10:46.607Z,-1.70
2023-01-19T00:13:16.156Z,-2.00
2023-01-19T00:15:48.187Z,-1.80
2023-01-19T00:18:16.189Z,-1.80
2023-01-19T00:20:46.478Z,-1.80
2023-01-19T00:23:15.279Z,-1.80
2023-01-19T00:25:43.948Z,-1.50
2023-01-19T00:28:13.241Z,-1.20
2023-01-19T00:30:45.794Z,-1.00
2023-01-19T00:33:15.145Z,-1.30
2023-01-19T00:35:43.649Z,-1.10
2023-01-19T00:38:12.312Z,-1.20
2023-01-19T00:40:40.368Z,-1.20
2023-01-19T00:43:08.343Z,-1.10
2023-01-19T00:45:36.682Z,-1.40
2023-01-19T00:48:06.974Z,-1.70
2023-01-19T00:50:35.630Z,-1.80
2023-01-19T00:53:03.795Z,-1.50
2023-01-19T00:55:33.331Z,-1.30
2023-01-19T00:58:02.824Z,-1.40
2023-01-19T01:00:30.865Z,-1.60
2023-01-19T01:02:59.375Z,-1.30
2023-01-19T01:05:29.117Z,-1.40
2023-01-19T01:07:57.174Z,-1.60
2023-01-19T01:10:28.504Z,-1.40
2023-01-19T01:12:57.526Z,-1.60
2023-01-19T01:15:29.859Z,-1.60
2023-01-19T01:17:57.897Z,-1.40
2023-01-19T01:20:30.480Z,-1.40
2023-01-19T01:22:59.446Z,-1.60
2023-01-19T01:25:30.976Z,-1.60
2023-01-19T01:27:59.037Z,-1.70
2023-01-19T01:30:27.074Z,-1.70
2023-01-19T01:32:55.083Z,-1.80
2023-01-19T01:35:23.050Z,-1.90
2023-01-19T01:37:52.420Z,-1.90
2023-01-19T01:40:20.993Z,-1.90
2023-01-19T01:42:48.946Z,-1.90
2023-01-19T01:45:33.162Z,-1.80
2023-01-19T01:48:07.385Z,-1.90
2023-01-19T01:51:00.128Z,-1.90
2023-01-19T01:53:32.188Z,-2.00
2023-01-19T01:56:04.172Z,-2.10
2023-01-19T01:58:33.685Z,-2.10
2023-01-19T02:01:19.396Z,-1.80
2023-01-19T02:03:47.449Z,-1.70
2023-01-19T02:06:16.301Z,-1.70
2023-01-19T02:09:09.521Z,-1.60
2023-01-19T02:11:55.350Z,-1.50
2023-01-19T02:14:23.470Z,-1.40
2023-01-19T02:16:52.649Z,-1.60
2023-01-19T02:19:26.221Z,-1.60
2023-01-19T02:22:01.673Z,-1.60
2023-01-19T02:24:31.796Z,-1.60
2023-01-19T02:27:00.995Z,-1.60
2023-01-19T02:29:29.979Z,-1.60
2023-01-19T02:31:59.752Z,-1.50
2023-01-19T02:34:30.113Z,-1.40
2023-01-19T02:37:02.036Z,-1.40
2023-01-19T02:39:37.449Z,-1.40
2023-01-19T02:42:10.435Z,-1.40
2023-01-19T02:44:39.467Z,-1.10
2023-01-19T02:47:07.465Z,-1.10
2023-01-19T02:49:36.236Z,-1.20
2023-01-19T02:52:04.816Z,-0.90
2023-01-19T02:54:46.209Z,-1.00
2023-01-19T02:57:28.377Z,-0.90
2023-01-19T03:00:13.608Z,-0.90
2023-01-19T03:02:55.761Z,-0.90
2023-01-19T03:05:40.443Z,-0.90
2023-01-19T03:08:20.564Z,-0.90
2023-01-19T03:11:01.835Z,-0.80
2023-01-19T03:13:39.149Z,-0.50
2023-01-19T03:16:15.355Z,-0.60
2023-01-19T03:18:49.278Z,-0.80
2023-01-19T03:21:20.169Z,-0.80
2023-01-19T03:23:51.335Z,-0.70
2023-01-19T03:26:25.825Z,-0.80
2023-01-19T03:28:55.371Z,-0.90
2023-01-19T03:31:27.511Z,-1.10
2023-01-19T03:34:00.859Z,-1.00
2023-01-19T03:36:34.141Z,-1.00
2023-01-19T03:39:05.085Z,-0.80
2023-01-19T03:41:36.264Z,-0.70
2023-01-19T03:44:05.604Z,-0.70
2023-01-19T03:46:35.046Z,-0.70
2023-01-19T03:49:03.328Z,-0.70
2023-01-19T03:51:31.554Z,-0.50
2023-01-19T03:54:01.311Z,-0.60
2023-01-19T03:56:29.405Z,-0.80
2023-01-19T03:58:58.771Z,-0.80
2023-01-19T04:01:26.982Z,-0.90
2023-01-19T04:03:55.424Z,-0.90
2023-01-19T04:06:23.799Z,-0.80
2023-01-19T04:08:52.821Z,-0.80
2023-01-19T04:11:20.946Z,-0.80
2023-01-19T04:13:49.728Z,-0.80
2023-01-19T04:16:21.106Z,-0.70
2023-01-19T04:18:49.851Z,-0.70
2023-01-19T04:21:18.292Z,-0.80
2023-01-19T04:23:46.600Z,-0.80
2023-01-19T04:26:14.819Z,-0.80
2023-01-19T04:28:42.974Z,-0.70
2023-01-19T04:31:11.035Z,-0.80
2023-01-19T04:33:40.401Z,-0.80
2023-01-19T04:36:09.522Z,-0.70
2023-01-19T04:38:40.841Z,-0.70
2023-01-19T04:41:08.812Z,-0.60
2023-01-19T04:43:36.878Z,-0.50
2023-01-19T04:46:05.125Z,-0.60
2023-01-19T04:48:33.155Z,-0.60
2023-01-19T04:51:02.470Z,-0.60
2023-01-19T04:53:30.494Z,-0.60
2023-01-19T04:55:59.702Z,-0.70
2023-01-19T04:58:28.038Z,-0.70
2023-01-19T05:00:56.086Z,-0.70
2023-01-19T05:03:25.715Z,-0.60
2023-01-19T05:05:54.604Z,-0.50
2023-01-19T05:08:24.409Z,-0.30
2023-01-19T05:10:52.442Z,-0.40
2023-01-19T05:13:20.655Z,-0.40
2023-01-19T05:15:48.624Z,-0.50
2023-01-19T05:18:16.673Z,-0.50
2023-01-19T05:20:44.712Z,-0.60
2023-01-19T05:23:12.705Z,-0.60
2023-01-19T05:25:43.383Z,-0.50
2023-01-19T05:28:11.710Z,-0.50
2023-01-19T05:30:39.823Z,-0.40
2023-01-19T05:33:07.807Z,-0.30
2023-01-19T05:35:36.600Z,-0.40
2023-01-19T05:38:05.107Z,-0.10
2023-01-19T05:40:33.437Z,0.20
2023-01-19T05:43:05.214Z,0.00
2023-01-19T05:45:34.210Z,0.00
2023-01-19T05:48:02.707Z,-0.10
2023-01-19T05:50:30.681Z,-0.10
2023-01-19T05:53:00.152Z,-0.20
2023-01-19T05:55:30.618Z,-0.20
2023-01-19T05:58:02.694Z,-0.20
2023-01-19T06:00:30.732Z,-0.20
2023-01-19T06:03:00.690Z,0.10
2023-01-19T06:05:28.895Z,0.30
2023-01-19T06:07:57.946Z,0.30
2023-01-19T06:10:25.970Z,0.20
2023-01-19T06:12:55.261Z,0.10
2023-01-19T06:15:26.387Z,0.10
2023-01-19T06:17:54.525Z,0.00
2023-01-19T06:20:22.609Z,0.00
2023-01-19T06:22:50.590Z,-0.10
2023-01-19T06:25:18.654Z,-0.10
2023-01-19T06:27:46.774Z,-0.10
2023-01-19T06:30:16.891Z,0.00
2023-01-19T06:32:47.399Z,0.10
2023-01-19T06:35:16.124Z,0.10
2023-01-19T06:37:44.125Z,0.10
2023-01-19T06:40:14.523Z,0.10
2023-01-19T06:42:42.927Z,0.10
2023-01-19T06:45:13.944Z,0.20
2023-01-19T06:47:41.908Z,0.20
2023-01-19T06:50:12.461Z,0.30
2023-01-19T06:52:42.385Z,0.40
2023-01-19T06:55:11.577Z,0.50
2023-01-19T06:57:40.197Z,0.30
2023-01-19T07:00:09.989Z,0.30
2023-01-19T07:02:40.495Z,0.50
2023-01-19T07:05:11.784Z,0.50
2023-01-19T07:07:39.804Z,0.40
2023-01-19T07:10:09.152Z,0.50
2023-01-19T07:12:37.294Z,0.50
2023-01-19T07:15:07.240Z,0.50
2023-01-19T07:17:35.239Z,0.40
2023-01-19T07:20:04.928Z,0.60
2023-01-19T07:22:34.279Z,0.60
2023-01-19T07:25:02.242Z,0.50
2023-01-19T07:27:30.649Z,0.40
2023-01-19T07:30:01.278Z,0.40
2023-01-19T07:32:29.462Z,0.30
2023-01-19T07:34:57.483Z,0.30
2023-01-19T07:37:25.484Z,0.30
2023-01-19T07:39:54.845Z,0.10
2023-01-19T07:42:22.910Z,0.10
2023-01-19T07:44:50.947Z,0.10
2023-01-19T07:47:19.201Z,0.00
2023-01-19T07:49:47.181Z,0.00
2023-01-19T07:52:15.229Z,-0.20
2023-01-19T07:54:43.490Z,-0.10
2023-01-19T07:57:12.873Z,-0.10
2023-01-19T07:59:40.895Z,0.00
2023-01-19T08:02:11.528Z,-0.10
2023-01-19T08:04:39.704Z,-0.20
2023-01-19T08:07:07.964Z,0.00
2023-01-19T08:09:35.989Z,-0.10
2023-01-19T08:12:04.200Z,-0.10
2023-01-19T08:14:34.208Z,0.10
2023-01-19T08:17:03.268Z,0.20
2023-01-19T08:19:31.393Z,0.30
2023-01-19T08:22:00.027Z,0.50
2023-01-19T08:24:29.695Z,0.80
2023-01-19T08:27:03.941Z,1.50
2023-01-19T08:29:33.757Z,2.20
2023-01-19T08:32:03.022Z,3.00
2023-01-19T08:34:31.884Z,3.90
2023-01-19T08:37:00.855Z,4.30
2023-01-19T08:39:28.985Z,4.40
2023-01-19T08:41:58.170Z,4.70
2023-01-19T08:44:26.312Z,4.80
2023-01-19T08:46:55.765Z,5.50
2023-01-19T08:49:23.781Z,5.80
2023-01-19T08:51:51.801Z,6.30
2023-01-19T08:54:21.630Z,6.40
2023-01-19T08:56:49.689Z,7.20
2023-01-19T08:59:17.958Z,7.50
2023-01-19T09:01:46.073Z,7.70
2023-01-19T09:04:15.508Z,7.80
2023-01-19T09:06:46.301Z,8.00
2023-01-19T09:09:14.275Z,8.20
2023-01-19T09:11:42.430Z,8.40
2023-01-19T09:14:13.557Z,7.50
2023-01-19T09:16:42.198Z,7.00
2023-01-19T09:19:10.201Z,6.40
2023-01-19T09:21:39.518Z,5.60
2023-01-19T09:24:08.072Z,5.60
2023-01-19T09:26:36.562Z,5.10
2023-01-19T09:29:04.627Z,5.40
2023-01-19T09:31:32.750Z,5.30
2023-01-19T09:34:00.898Z,5.00
2023-01-19T09:36:30.022Z,4.70
2023-01-19T09:38:59.429Z,4.50
2023-01-19T09:41:27.958Z,4.50
2023-01-19T09:44:01.466Z,4.20
2023-01-19T09:46:36.233Z,4.30
2023-01-19T09:49:14.118Z,4.50
2023-01-19T09:51:48.525Z,4.40
2023-01-19T09:54:20.678Z,4.10
2023-01-19T09:56:52.733Z,4.20
2023-01-19T09:59:27.250Z,3.80
2023-01-19T10:02:30.363Z,3.80
2023-01-19T10:05:02.361Z,3.90
2023-01-19T10:07:43.970Z,3.90
2023-01-19T10:10:25.825Z,3.60
2023-01-19T10:13:10.120Z,3.80
2023-01-19T10:15:53.528Z,3.50
2023-01-19T10:18:30.829Z,3.70
2023-01-19T10:21:06.774Z,3.90
2023-01-19T10:23:42.720Z,4.00
2023-01-19T10:26:17.517Z,4.00
2023-01-19T10:28:48.797Z,3.90
2023-01-19T10:31:21.338Z,3.90
2023-01-19T10:33:54.592Z,3.90
2023-01-19T10:36:38.632Z,3.90
2023-01-19T10:39:08.052Z,3.80
2023-01-19T10:41:43.994Z,3.80
2023-01-19T10:44:12.556Z,3.80
2023-01-19T10:46:46.590Z,4.00
2023-01-19T10:49:28.252Z,3.90
2023-01-19T10:51:57.688Z,3.60
2023-01-19T10:54:27.788Z,3.70
2023-01-19T10:56:59.809Z,3.60
2023-01-19T10:59:35.097Z,3.50
2023-01-19T11:02:21.051Z,3.50
2023-01-19T11:04:52.958Z,3.40
2023-01-19T11:07:24.081Z,3.70
2023-01-19T11:10:22.675Z,3.80
2023-01-19T11:13:03.307Z,3.80
2023-01-19T11:15:35.673Z,3.50
2023-01-19T11:18:06.153Z,3.50
2023-01-19T11:20:44.135Z,3.30
2023-01-19T11:23:27.162Z,3.30
2023-01-19T11:26:01.195Z,3.40
2023-01-19T11:28:35.332Z,3.40
2023-01-19T11:31:17.488Z,3.30
2023-01-19T11:33:53.398Z,3.30
2023-01-19T11:36:23.901Z,3.50
2023-01-19T11:38:53.925Z,3.80
2023-01-19T11:41:25.808Z,3.80
2023-01-19T11:43:58.079Z,4.00
2023-01-19T11:46:32.327Z,4.10
2023-01-19T11:49:04.778Z,4.20
2023-01-19T11:51:43.340Z,4.00
2023-01-19T11:54:23.617Z,4.40
2023-01-19T11:56:53.197Z,4.30
2023-01-19T11:59:24.874Z,4.60
2023-01-19T12:01:57.766Z,4.70
2023-01-19T12:04:29.469Z,4.90
2023-01-19T12:07:00.320Z,4.90
2023-01-19T12:09:32.233Z,5.10
2023-01-19T12:12:05.196Z,5.20
2023-01-19T12:14:41.024Z,5.00
2023-01-19T12:17:17.153Z,5.00
2023-01-19T12:19:54.869Z,5.00
2023-01-19T12:22:28.435Z,4.70
2023-01-19T12:25:04.238Z,4.40
2023-01-19T12:27:42.055Z,4.60
2023-01-19T12:30:21.399Z,4.20
2023-01-19T12:32:51.194Z,4.20
2023-01-19T12:35:55.528Z,4.30
2023-01-19T12:38:47.784Z,4.10
2023-01-19T12:41:34.864Z,4.10
2023-01-19T12:44:30.479Z,4.60
2023-01-19T12:47:04.094Z,4.80
2023-01-19T12:49:40.824Z,4.70
2023-01-19T12:52:30.732Z,4.60
2023-01-19T12:55:05.043Z,4.30
2023-01-19T12:57:39.025Z,4.60
2023-01-19T13:00:29.599Z,4.40
2023-01-19T13:03:00.649Z,4.20
2023-01-19T13:05:58.980Z,4.40
2023-01-19T13:08:58.803Z,4.30
2023-01-19T13:11:30.295Z,4.40
2023-01-19T13:14:36.945Z,4.70
2023-01-19T13:17:30.878Z,4.40
2023-01-19T13:20:27.209Z,4.60
2023-01-19T13:23:23.188Z,4.80
2023-01-19T13:25:56.055Z,4.80
2023-01-19T13:28:36.633Z,4.60
2023-01-19T13:31:06.897Z,4.50
2023-01-19T13:33:46.203Z,4.30
2023-01-19T13:36:28.530Z,4.20
2023-01-19T13:38:59.433Z,4.30
2023-01-19T13:41:33.405Z,4.50
2023-01-19T13:44:05.570Z,4.40
2023-01-19T13:46:34.634Z,4.30
2023-01-19T13:49:06.472Z,4.40
2023-01-19T13:51:35.885Z,4.40
2023-01-19T13:54:05.530Z,4.40
2023-01-19T13:56:33.557Z,4.40
2023-01-19T13:59:09.756Z,4.40
2023-01-19T14:01:40.653Z,4.30
2023-01-19T14:04:28.726Z,4.30
2023-01-19T14:07:01.533Z,4.60
2023-01-19T14:09:29.691Z,4.50
2023-01-19T14:12:14.734Z,4.40
2023-01-19T14:14:43.801Z,4.50
2023-01-19T14:17:25.894Z,4.80
2023-01-19T14:19:55.733Z,4.60
2023-01-19T14:22:40.252Z,4.50
2023-01-19T14:25:28.734Z,4.60
2023-01-19T14:28:42.225Z,4.60
2023-01-19T14:31:22.306Z,4.60
2023-01-19T14:33:52.391Z,4.50
2023-01-19T14:36:34.006Z,4.50
2023-01-19T14:39:04.594Z,4.60
2023-01-19T14:41:39.768Z,4.80
2023-01-19T14:44:12.469Z,4.80
2023-01-19T14:46:47.813Z,4.80
2023-01-19T14:49:24.150Z,4.70
2023-01-19T14:51:52.680Z,4.80
2023-01-19T14:54:32.856Z,5.00
2023-01-19T14:57:00.871Z,5.10
2023-01-19T14:59:28.909Z,4.90
2023-01-19T15:01:57.325Z,4.50
2023-01-19T15:04:26.265Z,4.40
2023-01-19T15:06:54.278Z,4.30
2023-01-19T15:09:24.014Z,4.30
2023-01-19T15:11:53.413Z,4.20
2023-01-19T15:14:22.924Z,4.20
2023-01-19T15:16:51.392Z,4.00
2023-01-19T15:19:19.527Z,4.00
2023-01-19T15:21:47.501Z,4.20
2023-01-19T15:24:17.828Z,4.30
2023-01-19T15:26:47.508Z,4.20
2023-01-19T15:29:24.252Z,4.20
2023-01-19T15:31:53.165Z,4.00
2023-01-19T15:34:21.320Z,3.90
2023-01-19T15:36:49.346Z,4.00
2023-01-19T15:39:17.352Z,3.90
2023-01-19T15:41:46.808Z,3.90
2023-01-19T15:44:14.823Z,3.90
2023-01-19T15:46:42.864Z,3.80
2023-01-19T15:49:13.445Z,3.90
2023-01-19T15:51:41.674Z,3.80
2023-01-19T15:54:14.477Z,3.70
2023-01-19T15:56:43.074Z,3.90
2023-01-19T15:59:12.494Z,3.80
2023-01-19T16:01:44.279Z,3.70
2023-01-19T16:04:12.505Z,3.70
2023-01-19T16:06:43.521Z,3.70
2023-01-19T16:09:16.644Z,3.60
2023-01-19T16:11:44.984Z,3.50
2023-01-19T16:14:16.644Z,3.30
2023-01-19T16:16:46.165Z,3.30
2023-01-19T16:19:15.891Z,3.20
2023-01-19T16:21:43.939Z,3.30
2023-01-19T16:24:11.877Z,3.20
2023-01-19T16:26:40.017Z,3.00
2023-01-19T16:29:10.676Z,3.00
2023-01-19T16:31:42.073Z,2.90
2023-01-19T16:34:11.040Z,2.90
2023-01-19T16:36:41.553Z,2.90
2023-01-19T16:39:13.409Z,2.70
2023-01-19T16:41:42.625Z,2.70
2023-01-19T16:44:11.855Z,2.70
2023-01-19T16:46:43.908Z,2.50
2023-01-19T16:49:14.783Z,2.50
2023-01-19T16:51:43.453Z,2.60
2023-01-19T16:54:14.794Z,2.50
2023-01-19T16:56:44.813Z,2.60
2023-01-19T16:59:14.893Z,2.30
2023-01-19T17:01:45.786Z,2.10
2023-01-19T17:04:14.424Z,2.10
2023-01-19T17:06:42.515Z,1.90
2023-01-19T17:09:11.225Z,1.70
2023-01-19T17:11:40.227Z,1.90
2023-01-19T17:14:11.475Z,1.80
2023-01-19T17:16:39.841Z,1.90
2023-01-19T17:19:10.190Z,2.00
2023-01-19T17:21:38.236Z,1.90
2023-01-19T17:24:06.955Z,1.80
2023-01-19T17:26:34.945Z,1.70
2023-01-19T17:29:05.879Z,1.50
2023-01-19T17:31:35.048Z,1.80
2023-01-19T17:34:04.202Z,1.60
2023-01-19T17:36:34.591Z,1.60
2023-01-19T17:39:07.545Z,1.70
2023-01-19T17:41:37.034Z,1.70
2023-01-19T17:44:06.824Z,1.50
2023-01-19T17:46:37.565Z,1.50
2023-01-19T17:49:08.453Z,1.50
2023-01-19T17:51:38.021Z,1.30
2023-01-19T17:54:06.551Z,1.10
2023-01-19T17:56:37.469Z,1.10
2023-01-19T17:59:07.906Z,1.00
2023-01-19T18:01:39.832Z,1.00
2023-01-19T18:04:12.746Z,1.10
2023-01-19T18:06:43.565Z,1.10
2023-01-19T18:09:12.038Z,1.10
2023-01-19T18:11:41.457Z,1.00
2023-01-19T18:14:09.716Z,1.00
2023-01-19T18:16:37.731Z,1.10
2023-01-19T18:19:08.506Z,1.10
2023-01-19T18:21:37.279Z,1.10
2023-01-19T18:24:07.755Z,1.10
2023-01-19T18:26:37.586Z,1.10
2023-01-19T18:29:05.956Z,1.20
2023-01-19T18:31:34.011Z,1.00
2023-01-19T18:34:02.125Z,1.10
2023-01-19T18:36:31.983Z,1.00
2023-01-19T18:39:00.050Z,1.00
2023-01-19T18:41:30.609Z,1.20
2023-01-19T18:43:59.548Z,1.00
2023-01-19T18:46:27.701Z,0.90
2023-01-19T18:48:55.779Z,1.00
2023-01-19T18:51:23.911Z,1.00
2023-01-19T18:53:52.111Z,1.10
2023-01-19T18:56:20.154Z,1.10
2023-01-19T18:58:49.548Z,0.80
2023-01-19T19:01:22.376Z,0.70
2023-01-19T19:03:50.486Z,0.60
2023-01-19T19:06:20.718Z,0.60
2023-01-19T19:08:50.267Z,0.90
2023-01-19T19:11:18.882Z,1.00
2023-01-19T19:13:47.122Z,1.00
2023-01-19T19:16:18.948Z,0.90
2023-01-19T19:18:50.517Z,1.00
2023-01-19T19:21:20.247Z,1.10
2023-01-19T19:23:53.329Z,1.00
2023-01-19T19:26:24.808Z,1.00
2023-01-19T19:28:54.868Z,1.00
2023-01-19T19:31:27.766Z,1.00
2023-01-19T19:34:00.811Z,1.00
2023-01-19T19:36:30.262Z,0.90
2023-01-19T19:39:00.040Z,0.80
2023-01-19T19:41:32.868Z,0.80
2023-01-19T19:44:01.337Z,0.90
2023-01-19T19:46:33.185Z,1.00
2023-01-19T19:49:03.820Z,1.20
2023-01-19T19:51:33.579Z,1.20
2023-01-19T19:54:04.896Z,1.30
2023-01-19T19:56:35.645Z,1.50
2023-01-19T19:59:05.452Z,1.60
2023-01-19T20:01:36.416Z,1.50
2023-01-19T20:04:11.488Z,1.70
2023-01-19T20:06:44.675Z,1.60
2023-01-19T20:09:15.332Z,1.60
2023-01-19T20:11:45.794Z,1.60
2023-01-19T20:14:17.731Z,1.50
2023-01-19T20:16:48.829Z,1.50
2023-01-19T20:19:19.095Z,1.80
2023-01-19T20:21:49.337Z,1.70
2023-01-19T20:24:21.515Z,1.70
2023-01-19T20:26:53.717Z,1.70
2023-01-19T20:29:27.199Z,1.50
2023-01-19T20:32:01.277Z,1.40
2023-01-19T20:34:36.665Z,1.40
2023-01-19T20:37:07.906Z,1.20
2023-01-19T20:39:38.515Z,1.40
2023-01-19T20:42:11.730Z,1.40
2023-01-19T20:44:43.042Z,1.50
2023-01-19T20:47:14.196Z,1.60
2023-01-19T20:49:44.329Z,1.70
2023-01-19T20:52:13.216Z,1.60
2023-01-19T20:54:42.377Z,1.60
2023-01-19T20:57:10.387Z,1.70
2023-01-19T20:59:40.810Z,1.60
2023-01-19T21:02:12.520Z,1.40
2023-01-19T21:04:42.116Z,1.40
2023-01-19T21:07:10.379Z,1.40
2023-01-19T21:09:39.687Z,1.30
2023-01-19T21:12:09.672Z,1.30
2023-01-19T21:14:38.422Z,1.30
2023-01-19T21:17:06.459Z,1.40
2023-01-19T21:19:34.622Z,1.40
2023-01-19T21:22:04.016Z,1.30
2023-01-19T21:24:32.232Z,1.30
2023-01-19T21:27:00.332Z,1.30
2023-01-19T21:29:28.450Z,1.10
2023-01-19T21:31:56.737Z,1.10
2023-01-19T21:34:24.903Z,0.90
2023-01-19T21:36:52.909Z,0.80
2023-01-19T21:39:22.535Z,0.70
2023-01-19T21:41:50.597Z,0.80
2023-01-19T21:44:18.666Z,0.80
2023-01-19T21:46:46.951Z,0.70
2023-01-19T21:49:19.225Z,0.50
2023-01-19T21:51:50.501Z,0.50
2023-01-19T21:54:19.436Z,0.50
2023-01-19T21:56:48.787Z,0.70
2023-01-19T21:59:18.050Z,0.60
2023-01-19T22:01:47.967Z,0.50
2023-01-19T22:04:16.030Z,0.40
2023-01-19T22:06:44.039Z,0.50
2023-01-19T22:09:12.103Z,0.50
2023-01-19T22:11:40.301Z,0.50
2023-01-19T22:14:11.374Z,0.60
2023-01-19T22:16:39.426Z,0.40
2023-01-19T22:19:08.248Z,0.30
2023-01-19T22:21:36.699Z,0.60
2023-01-19T22:24:06.101Z,0.60
2023-01-19T22:26:35.336Z,0.30
2023-01-19T22:29:05.420Z,0.40
2023-01-19T22:31:35.057Z,0.50
2023-01-19T22:34:03.341Z,0.50
2023-01-19T22:36:33.979Z,0.30
2023-01-19T22:39:04.460Z,0.40
2023-01-19T22:41:34.640Z,0.30
2023-01-19T22:44:05.753Z,0.20
2023-01-19T22:46:37.336Z,0.20
2023-01-19T22:49:07.530Z,0.20
2023-01-19T22:51:36.621Z,0.10
2023-01-19T22:54:05.373Z,-0.10
2023-01-19T22:56:36.181Z,-0.20
2023-01-19T22:59:05.649Z,-0.40
2023-01-19T23:01:37.681Z,-0.30
2023-01-19T23:04:07.207Z,-0.30
2023-01-19T23:06:37.724Z,-0.30
2023-01-19T23:09:08.516Z,-0.30
2023-01-19T23:11:39.116Z,-0.30
2023-01-19T23:14:09.702Z,-0.20
2023-01-19T23:16:39.125Z,-0.10
2023-01-19T23:19:07.478Z,-0.30
2023-01-19T23:21:36.824Z,-0.30
2023-01-19T23:24:06.173Z,-0.30
2023-01-19T23:26:37.980Z,-0.30
2023-01-19T23:29:10.852Z,-0.40
2023-01-19T23:31:44.941Z,-0.30
2023-01-19T23:34:13.931Z,-0.30
2023-01-19T23:36:43.782Z,-0.30
2023-01-19T23:39:16.231Z,-0.20
2023-01-19T23:41:44.335Z,-0.30
2023-01-19T23:44:12.378Z,-0.50
2023-01-19T23:46:41.971Z,-0.50
2023-01-19T23:49:09.962Z,-0.50
2023-01-19T23:51:37.968Z,-0.60
2023-01-19T23:54:06.497Z,-0.50
2023-01-19T23:56:37.248Z,-0.60
2023-01-19T23:59:07.709Z,-0.40
